Time;durP1;ratioP1;P1;durP2;ratioP2;P2;SDS_P1;SDS_P2;PMS_P1;PMS_P2;Temp;Humidity;BMP_temperature;BMP_pressure;BME280_temperature;BME280_humidity;BME280_pressure;Samples;Min_cycle;Max_cycle;Signal;HPM_P1;HPM_P2
2023/04/06 00:02:17;;;;;;;15.05;9.93;;;;;;;;;;4998813;28;88060;-73
2023/04/06 00:04:44;;;;;;;13.40;8.75;;;;;;;;;;4997832;28;88374;-72
2023/04/06 00:07:10;;;;;;;14.10;9.52;;;;;;;;;;5007877;28;88835;-73
2023/04/06 00:09:37;;;;;;;16.17;9.73;;;;;;;;;;5011246;28;91675;-72
2023/04/06 00:12:03;;;;;;;14.57;9.05;;;;;;;;;;5007365;28;88134;-74
2023/04/06 00:14:29;;;;;;;15.90;10.07;;;;;;;;;;5008532;28;88990;-74
2023/04/06 00:16:56;;;;;;;15.32;9.85;;;;;;;;;;5006884;28;89062;-74
2023/04/06 00:19:22;;;;;;;13.00;9.05;;;;;;;;;;5016946;28;89947;-73
2023/04/06 00:21:48;;;;;;;13.30;9.20;;;;;;;;;;5003392;28;88802;-73
2023/04/06 00:24:15;;;;;;;13.60;9.00;;;;;;;;;;5001832;28;89310;-73
2023/04/06 00:26:41;;;;;;;15.15;9.50;;;;;;;;;;5004894;28;88631;-73
2023/04/06 00:29:08;;;;;;;15.85;9.90;;;;;;;;;;5016676;28;88944;-73
2023/04/06 00:31:34;;;;;;;15.88;9.95;;;;;;;;;;5010026;28;88460;-73
2023/04/06 00:34:01;;;;;;;18.52;9.23;;;;;;;;;;5009045;28;88885;-72
2023/04/06 00:36:27;;;;;;;16.98;9.32;;;;;;;;;;5005078;28;88643;-73
2023/04/06 00:38:53;;;;;;;14.80;9.35;;;;;;;;;;4983533;28;88760;-73
2023/04/06 00:41:20;;;;;;;13.68;9.18;;;;;;;;;;4998484;28;88055;-72
2023/04/06 00:43:47;;;;;;;15.70;9.68;;;;;;;;;;5002851;28;89764;-74
2023/04/06 00:46:13;;;;;;;19.60;9.93;;;;;;;;;;4997938;28;90214;-73
2023/04/06 00:48:40;;;;;;;15.45;9.50;;;;;;;;;;5000814;28;91093;-72
2023/04/06 00:51:06;;;;;;;17.90;11.25;;;;;;;;;;5017317;28;88023;-72
2023/04/06 00:53:33;;;;;;;18.70;11.10;;;;;;;;;;5008219;28;88965;-72
2023/04/06 00:55:59;;;;;;;14.18;9.18;;;;;;;;;;4999461;28;90038;-73
2023/04/06 00:58:25;;;;;;;16.25;9.68;;;;;;;;;;4998275;28;90158;-73
2023/04/06 01:00:52;;;;;;;14.75;9.10;;;;;;;;;;4998122;28;88936;-72
2023/04/06 01:03:18;;;;;;;15.65;9.75;;;;;;;;;;4978222;28;88032;-72
2023/04/06 01:05:44;;;;;;;19.65;9.60;;;;;;;;;;4998450;28;87707;-72
2023/04/06 01:08:11;;;;;;;18.17;10.13;;;;;;;;;;4996600;28;89165;-72
2023/04/06 01:10:37;;;;;;;17.85;10.73;;;;;;;;;;4996879;28;89258;-72
2023/04/06 01:13:04;;;;;;;15.73;10.30;;;;;;;;;;5001665;28;90184;-72
2023/04/06 01:15:31;;;;;;;13.23;9.45;;;;;;;;;;5010842;28;90275;-74
2023/04/06 01:17:58;;;;;;;13.70;9.93;;;;;;;;;;5018903;28;90371;-72
2023/04/06 01:20:24;;;;;;;17.92;10.73;;;;;;;;;;5014403;28;89100;-72
2023/04/06 01:22:50;;;;;;;17.98;10.05;;;;;;;;;;5009547;28;89106;-73
2023/04/06 01:25:17;;;;;;;16.80;10.52;;;;;;;;;;4999539;28;89489;-74
2023/04/06 01:27:43;;;;;;;17.83;10.25;;;;;;;;;;5001647;28;89268;-73
2023/04/06 01:30:10;;;;;;;16.00;10.57;;;;;;;;;;5000184;28;89166;-73
2023/04/06 01:32:36;;;;;;;29.63;11.32;;;;;;;;;;4995325;28;89906;-73
2023/04/06 01:35:02;;;;;;;20.50;11.38;;;;;;;;;;5001254;28;89833;-73
2023/04/06 01:37:31;;;;;;;18.27;12.00;;;;;;;;;;5006516;28;89840;-73
2023/04/06 01:39:58;;;;;;;19.75;11.43;;;;;;;;;;5007003;28;92526;-73
2023/04/06 01:42:25;;;;;;;18.25;11.15;;;;;;;;;;5002660;28;89101;-73
2023/04/06 01:44:52;;;;;;;16.83;11.30;;;;;;;;;;5001176;28;89510;-73
2023/04/06 01:47:18;;;;;;;15.60;10.25;;;;;;;;;;5008203;28;89103;-73
2023/04/06 01:49:44;;;;;;;20.48;11.48;;;;;;;;;;5014075;28;90105;-73
2023/04/06 01:52:11;;;;;;;17.98;10.73;;;;;;;;;;5007937;28;89688;-73
2023/04/06 01:54:37;;;;;;;23.00;11.20;;;;;;;;;;5009623;28;89048;-73
2023/04/06 01:57:03;;;;;;;17.48;11.20;;;;;;;;;;4999724;28;90349;-73
2023/04/06 01:59:30;;;;;;;26.55;11.85;;;;;;;;;;5006911;28;89907;-73
2023/04/06 02:01:56;;;;;;;18.42;11.18;;;;;;;;;;4998450;28;90059;-73
2023/04/06 02:04:22;;;;;;;21.52;10.73;;;;;;;;;;5008623;28;90311;-73
2023/04/06 02:06:49;;;;;;;18.20;11.82;;;;;;;;;;5007680;28;88993;-73
2023/04/06 02:09:15;;;;;;;18.70;10.35;;;;;;;;;;4995333;28;88941;-73
2023/04/06 02:11:41;;;;;;;15.20;10.65;;;;;;;;;;5004989;28;90290;-73
2023/04/06 02:14:08;;;;;;;20.40;11.63;;;;;;;;;;5001703;28;89208;-73
2023/04/06 02:16:34;;;;;;;18.83;11.85;;;;;;;;;;4998568;28;90008;-73
2023/04/06 02:19:01;;;;;;;17.90;11.80;;;;;;;;;;4995264;28;90915;-74
2023/04/06 02:21:27;;;;;;;19.15;12.00;;;;;;;;;;5011291;28;89426;-73
2023/04/06 02:23:53;;;;;;;18.17;11.60;;;;;;;;;;5012515;28;90497;-73
2023/04/06 02:26:20;;;;;;;26.35;12.18;;;;;;;;;;5007520;28;89616;-73
2023/04/06 02:28:46;;;;;;;21.10;11.18;;;;;;;;;;5001742;28;90064;-73
2023/04/06 02:31:15;;;;;;;19.70;11.55;;;;;;;;;;4997074;28;90123;-73
2023/04/06 02:33:41;;;;;;;16.77;10.68;;;;;;;;;;4991001;28;89335;-73
2023/04/06 02:36:08;;;;;;;18.65;11.68;;;;;;;;;;4994060;28;90188;-73
2023/04/06 02:38:34;;;;;;;17.38;11.77;;;;;;;;;;4994289;28;89569;-73
2023/04/06 02:41:00;;;;;;;15.25;10.68;;;;;;;;;;5002739;28;89063;-73
2023/04/06 02:43:26;;;;;;;16.83;11.48;;;;;;;;;;4998485;28;90541;-73
2023/04/06 02:45:53;;;;;;;18.10;12.07;;;;;;;;;;4994298;28;89046;-73
2023/04/06 02:48:19;;;;;;;18.92;12.10;;;;;;;;;;5010172;28;90212;-73
2023/04/06 02:50:45;;;;;;;17.75;11.13;;;;;;;;;;5013078;28;90459;-73
2023/04/06 02:53:12;;;;;;;17.90;10.68;;;;;;;;;;5015456;28;89167;-73
2023/04/06 02:55:38;;;;;;;23.00;11.95;;;;;;;;;;5006983;28;90036;-73
2023/04/06 02:58:05;;;;;;;16.42;10.40;;;;;;;;;;4995389;28;89823;-74
2023/04/06 03:00:31;;;;;;;21.35;12.05;;;;;;;;;;5007996;28;90174;-73
2023/04/06 03:02:57;;;;;;;18.05;10.93;;;;;;;;;;5005793;28;89897;-73
2023/04/06 03:05:24;;;;;;;18.73;11.18;;;;;;;;;;5006730;28;90573;-73
2023/04/06 03:07:50;;;;;;;16.73;11.05;;;;;;;;;;4994631;28;90044;-73
2023/04/06 03:10:17;;;;;;;14.23;9.57;;;;;;;;;;4998633;28;89919;-73
2023/04/06 03:12:43;;;;;;;18.15;10.65;;;;;;;;;;4996838;28;88992;-72
2023/04/06 03:15:10;;;;;;;16.85;11.13;;;;;;;;;;5000667;28;89110;-73
2023/04/06 03:17:36;;;;;;;19.20;11.13;;;;;;;;;;5002404;28;92892;-73
2023/04/06 03:20:03;;;;;;;14.75;10.05;;;;;;;;;;5014247;28;89517;-72
2023/04/06 03:22:29;;;;;;;16.17;10.88;;;;;;;;;;5006782;28;90052;-73
2023/04/06 03:24:56;;;;;;;21.20;10.32;;;;;;;;;;5011626;28;89851;-73
2023/04/06 03:27:22;;;;;;;22.60;11.02;;;;;;;;;;5019661;28;89022;-72
2023/04/06 03:29:48;;;;;;;19.90;10.45;;;;;;;;;;4997305;28;89619;-74
2023/04/06 03:32:15;;;;;;;19.08;10.18;;;;;;;;;;5001110;28;89082;-73
2023/04/06 03:34:41;;;;;;;15.60;10.52;;;;;;;;;;5014961;28;91211;-73
2023/04/06 03:37:07;;;;;;;15.32;9.65;;;;;;;;;;5004596;28;90256;-73
2023/04/06 03:39:36;;;;;;;16.30;10.57;;;;;;;;;;5005122;28;89779;-73
2023/04/06 03:42:02;;;;;;;17.08;10.30;;;;;;;;;;5004525;28;89044;-73
2023/04/06 03:44:29;;;;;;;14.38;9.85;;;;;;;;;;4999743;28;89595;-73
2023/04/06 03:46:55;;;;;;;16.00;10.73;;;;;;;;;;5011740;28;89977;-73
2023/04/06 03:49:21;;;;;;;14.57;9.57;;;;;;;;;;5015647;28;89105;-73
2023/04/06 03:51:48;;;;;;;12.63;8.95;;;;;;;;;;5008963;28;90213;-73
2023/04/06 03:54:14;;;;;;;13.82;8.98;;;;;;;;;;5013142;28;88084;-73
2023/04/06 03:56:41;;;;;;;17.85;9.10;;;;;;;;;;5014962;28;90500;-74
2023/04/06 03:59:07;;;;;;;14.20;8.90;;;;;;;;;;5003207;28;90085;-73
2023/04/06 04:01:34;;;;;;;17.48;10.02;;;;;;;;;;4995609;28;88668;-73
2023/04/06 04:04:00;;;;;;;18.98;9.90;;;;;;;;;;5012304;28;90625;-73
2023/04/06 04:06:27;;;;;;;16.73;9.60;;;;;;;;;;5004446;28;89320;-73
2023/04/06 04:08:53;;;;;;;17.85;9.75;;;;;;;;;;5017219;28;91332;-72
2023/04/06 04:11:19;;;;;;;18.02;10.15;;;;;;;;;;5001851;28;89304;-73
2023/04/06 04:13:46;;;;;;;22.08;10.85;;;;;;;;;;5001965;28;89007;-73
2023/04/06 04:16:12;;;;;;;19.80;9.77;;;;;;;;;;5008646;28;90017;-73
2023/04/06 04:18:38;;;;;;;21.45;11.38;;;;;;;;;;5008855;28;89228;-73
2023/04/06 04:21:05;;;;;;;19.92;10.63;;;;;;;;;;4999704;28;89049;-72
2023/04/06 04:23:31;;;;;;;22.75;10.80;;;;;;;;;;5004223;28;89575;-73
2023/04/06 04:25:58;;;;;;;20.45;10.77;;;;;;;;;;5013232;28;91471;-72
2023/04/06 04:28:24;;;;;;;21.67;11.13;;;;;;;;;;4998794;28;89660;-72
2023/04/06 04:30:51;;;;;;;17.98;11.38;;;;;;;;;;5013744;28;89693;-72
2023/04/06 04:33:17;;;;;;;17.25;10.57;;;;;;;;;;5010176;28;90186;-72
2023/04/06 04:35:43;;;;;;;17.85;11.57;;;;;;;;;;5002616;28;89295;-72
2023/04/06 04:38:10;;;;;;;22.23;13.07;;;;;;;;;;4999381;28;88931;-72
2023/04/06 04:40:36;;;;;;;18.33;10.68;;;;;;;;;;4996198;28;90149;-73
2023/04/06 04:43:02;;;;;;;18.75;11.38;;;;;;;;;;4987522;28;89373;-73
2023/04/06 04:45:28;;;;;;;19.77;11.63;;;;;;;;;;4995722;28;89023;-73
2023/04/06 04:47:55;;;;;;;19.80;11.07;;;;;;;;;;4996916;28;90150;-73
2023/04/06 04:50:21;;;;;;;19.92;11.55;;;;;;;;;;5003679;28;91258;-73
2023/04/06 04:52:47;;;;;;;20.45;11.20;;;;;;;;;;5018275;28;89325;-73
2023/04/06 04:55:14;;;;;;;22.25;11.82;;;;;;;;;;5013520;28;91067;-72
2023/04/06 04:57:40;;;;;;;24.40;11.98;;;;;;;;;;4994874;28;91608;-72
2023/04/06 05:00:07;;;;;;;23.08;12.57;;;;;;;;;;4997137;28;90229;-72
2023/04/06 05:02:33;;;;;;;30.88;14.15;;;;;;;;;;4996947;28;89739;-72
2023/04/06 05:05:00;;;;;;;22.48;12.70;;;;;;;;;;4997196;28;89112;-72
2023/04/06 05:07:26;;;;;;;23.63;13.05;;;;;;;;;;5003134;28;89927;-72
2023/04/06 05:09:53;;;;;;;27.33;13.57;;;;;;;;;;4996389;28;89670;-73
2023/04/06 05:12:19;;;;;;;25.13;13.00;;;;;;;;;;4989221;28;89105;-72
2023/04/06 05:14:46;;;;;;;38.38;14.05;;;;;;;;;;5012688;28;89922;-72
2023/04/06 05:17:12;;;;;;;25.00;14.13;;;;;;;;;;5001321;28;89776;-72
2023/04/06 05:19:38;;;;;;;28.17;14.52;;;;;;;;;;5015509;28;90453;-72
2023/04/06 05:22:04;;;;;;;25.50;14.23;;;;;;;;;;5009837;28;89833;-73
2023/04/06 05:24:31;;;;;;;24.08;15.00;;;;;;;;;;5012874;28;90122;-73
2023/04/06 05:26:57;;;;;;;30.10;14.43;;;;;;;;;;5010962;28;89973;-73
2023/04/06 05:29:23;;;;;;;23.08;14.00;;;;;;;;;;5007077;28;89912;-73
2023/04/06 05:31:50;;;;;;;25.88;15.27;;;;;;;;;;4989895;28;89584;-73
2023/04/06 05:34:17;;;;;;;28.83;14.73;;;;;;;;;;5004447;28;90123;-73
2023/04/06 05:36:43;;;;;;;46.13;14.55;;;;;;;;;;5009270;28;93191;-72
2023/04/06 05:39:10;;;;;;;22.65;14.23;;;;;;;;;;5005766;28;90396;-72
2023/04/06 05:41:36;;;;;;;28.05;14.05;;;;;;;;;;5008392;28;90618;-72
2023/04/06 05:44:02;;;;;;;23.30;13.48;;;;;;;;;;4991970;28;88974;-72
2023/04/06 05:46:29;;;;;;;27.92;15.57;;;;;;;;;;5003887;28;91001;-73
2023/04/06 05:48:56;;;;;;;28.33;14.68;;;;;;;;;;5016486;28;89981;-72
2023/04/06 05:51:22;;;;;;;22.15;13.90;;;;;;;;;;5011128;28;90362;-72
2023/04/06 05:53:48;;;;;;;23.85;13.50;;;;;;;;;;5004329;28;90037;-72
2023/04/06 05:56:15;;;;;;;21.92;13.02;;;;;;;;;;5008389;28;89534;-71
2023/04/06 05:58:41;;;;;;;23.33;13.40;;;;;;;;;;5011937;28;89040;-71
2023/04/06 06:01:08;;;;;;;21.25;12.88;;;;;;;;;;4996638;28;89826;-72
2023/04/06 06:03:35;;;;;;;25.38;13.43;;;;;;;;;;5002578;28;89017;-71
2023/04/06 06:06:02;;;;;;;28.00;14.70;;;;;;;;;;5010178;28;90213;-72
2023/04/06 06:08:30;;;;;;;23.13;13.35;;;;;;;;;;4998387;28;89903;-72
2023/04/06 06:10:56;;;;;;;27.80;13.18;;;;;;;;;;4994975;28;89203;-72
2023/04/06 06:13:23;;;;;;;30.45;14.77;;;;;;;;;;4988085;28;90028;-72
2023/04/06 06:15:50;;;;;;;26.52;13.95;;;;;;;;;;5004263;28;93460;-72
2023/04/06 06:18:16;;;;;;;24.00;14.00;;;;;;;;;;4996511;28;89136;-72
2023/04/06 06:20:43;;;;;;;27.48;13.82;;;;;;;;;;4992745;28;90550;-72
2023/04/06 06:23:09;;;;;;;27.10;14.73;;;;;;;;;;4994101;28;89039;-72
2023/04/06 06:25:35;;;;;;;30.45;13.93;;;;;;;;;;4992921;28;90022;-72
2023/04/06 06:28:02;;;;;;;23.35;13.52;;;;;;;;;;5008313;28;89605;-72
2023/04/06 06:30:28;;;;;;;25.08;13.98;;;;;;;;;;4997718;28;90088;-72
2023/04/06 06:32:54;;;;;;;23.27;13.77;;;;;;;;;;4998262;28;88901;-72
2023/04/06 06:35:21;;;;;;;29.92;13.93;;;;;;;;;;4994611;28;89594;-72
2023/04/06 06:37:47;;;;;;;23.80;13.23;;;;;;;;;;4996290;28;89002;-72
2023/04/06 06:40:15;;;;;;;22.60;14.27;;;;;;;;;;5008684;28;91454;-72
2023/04/06 06:42:42;;;;;;;30.05;15.63;;;;;;;;;;4996367;28;89044;-71
2023/04/06 06:45:09;;;;;;;26.67;15.23;;;;;;;;;;5005163;28;89836;-72
2023/04/06 06:47:35;;;;;;;26.83;14.65;;;;;;;;;;5006445;28;93463;-71
2023/04/06 06:50:03;;;;;;;25.23;15.88;;;;;;;;;;5011234;28;90160;-71
2023/04/06 06:52:29;;;;;;;25.35;14.65;;;;;;;;;;5015585;28;90426;-71
2023/04/06 06:54:56;;;;;;;30.10;14.00;;;;;;;;;;4997522;28;90646;-72
2023/04/06 06:57:23;;;;;;;29.73;16.02;;;;;;;;;;5000648;28;89296;-71
2023/04/06 06:59:49;;;;;;;28.13;15.65;;;;;;;;;;4996497;28;90486;-71
2023/04/06 07:02:15;;;;;;;30.10;16.33;;;;;;;;;;4999459;28;92657;-71
2023/04/06 07:04:42;;;;;;;28.00;16.60;;;;;;;;;;4999443;28;90491;-70
2023/04/06 07:07:08;;;;;;;26.75;16.25;;;;;;;;;;4998264;28;90747;-71
2023/04/06 07:09:35;;;;;;;28.08;16.52;;;;;;;;;;4997204;28;93822;-71
2023/04/06 07:12:01;;;;;;;29.42;15.70;;;;;;;;;;4993075;28;91686;-72
2023/04/06 07:14:28;;;;;;;36.50;15.77;;;;;;;;;;4994918;28;92799;-71
2023/04/06 07:16:54;;;;;;;28.15;15.35;;;;;;;;;;4990664;28;94563;-71
2023/04/06 07:19:21;;;;;;;27.08;16.45;;;;;;;;;;4985167;28;94820;-70
2023/04/06 07:21:49;;;;;;;27.83;16.15;;;;;;;;;;4998462;28;97116;-70
2023/04/06 07:24:15;;;;;;;27.98;15.40;;;;;;;;;;4998671;28;93398;-70
2023/04/06 07:26:42;;;;;;;31.77;16.35;;;;;;;;;;5003156;28;93627;-70
2023/04/06 07:29:08;;;;;;;31.98;15.88;;;;;;;;;;4989605;28;94765;-71
2023/04/06 07:31:35;;;;;;;27.42;16.50;;;;;;;;;;4996565;28;92534;-70
2023/04/06 07:34:02;;;;;;;28.50;16.23;;;;;;;;;;4994075;28;93156;-71
2023/04/06 07:36:28;;;;;;;36.65;18.02;;;;;;;;;;4994539;28;94017;-72
2023/04/06 07:38:54;;;;;;;29.13;16.95;;;;;;;;;;4988164;28;94244;-71
2023/04/06 07:41:21;;;;;;;41.42;17.48;;;;;;;;;;5000784;28;93161;-71
2023/04/06 07:43:48;;;;;;;34.65;17.70;;;;;;;;;;4993675;28;95932;-71
2023/04/06 07:46:14;;;;;;;27.88;16.30;;;;;;;;;;5003976;28;93222;-71
2023/04/06 07:48:40;;;;;;;30.10;16.15;;;;;;;;;;4985856;28;93148;-71
2023/04/06 07:51:07;;;;;;;32.33;15.77;;;;;;;;;;4990183;28;92492;-71
2023/04/06 07:53:33;;;;;;;27.08;15.85;;;;;;;;;;5002538;28;93238;-71
2023/04/06 07:55:59;;;;;;;27.27;17.13;;;;;;;;;;4991569;28;93436;-72
2023/04/06 07:58:26;;;;;;;38.67;17.00;;;;;;;;;;5007281;28;92469;-71
2023/04/06 08:00:52;;;;;;;27.02;16.80;;;;;;;;;;4994630;28;93565;-71
2023/04/06 08:03:21;;;;;;;33.17;16.80;;;;;;;;;;4994379;28;92479;-71
2023/04/06 08:05:47;;;;;;;29.33;15.57;;;;;;;;;;4991513;28;92533;-72
2023/04/06 08:08:14;;;;;;;28.02;16.33;;;;;;;;;;5007872;28;96028;-71
2023/04/06 08:10:40;;;;;;;32.13;17.23;;;;;;;;;;5010667;28;92510;-71
2023/04/06 08:13:08;;;;;;;27.73;16.92;;;;;;;;;;5000170;28;94270;-71
2023/04/06 08:15:34;;;;;;;30.13;17.38;;;;;;;;;;5008774;28;95173;-72
2023/04/06 08:18:01;;;;;;;39.58;18.02;;;;;;;;;;4998170;28;92490;-72
2023/04/06 08:20:27;;;;;;;31.40;17.55;;;;;;;;;;4991801;28;94349;-72
2023/04/06 08:22:53;;;;;;;28.23;17.77;;;;;;;;;;4986140;28;94074;-71
2023/04/06 08:25:20;;;;;;;31.10;17.98;;;;;;;;;;4979906;28;93343;-72
2023/04/06 08:27:46;;;;;;;40.53;18.38;;;;;;;;;;4987651;28;92460;-72
2023/04/06 08:30:14;;;;;;;32.60;17.27;;;;;;;;;;4996591;28;92722;-72
2023/04/06 08:32:41;;;;;;;26.25;17.40;;;;;;;;;;5001280;28;94922;-72
2023/04/06 08:35:08;;;;;;;33.78;17.30;;;;;;;;;;5007171;28;93426;-72
2023/04/06 08:37:34;;;;;;;28.42;16.45;;;;;;;;;;5004980;28;92774;-72
2023/04/06 08:40:00;;;;;;;35.45;19.27;;;;;;;;;;4994990;28;93247;-70
2023/04/06 08:42:28;;;;;;;29.30;17.27;;;;;;;;;;4982159;28;94452;-72
2023/04/06 08:44:55;;;;;;;31.67;16.80;;;;;;;;;;4997573;28;94185;-72
2023/04/06 08:47:22;;;;;;;32.50;18.33;;;;;;;;;;4992511;28;93299;-72
2023/04/06 08:49:50;;;;;;;31.40;18.35;;;;;;;;;;4995375;28;93016;-72
2023/04/06 08:52:20;;;;;;;37.20;19.73;;;;;;;;;;4991805;28;93400;-73
2023/04/06 08:54:47;;;;;;;40.65;18.95;;;;;;;;;;4990609;28;93449;-73
2023/04/06 08:57:13;;;;;;;40.08;19.20;;;;;;;;;;4989656;28;95048;-74
2023/04/06 08:59:40;;;;;;;41.58;17.73;;;;;;;;;;4994228;28;96070;-73
2023/04/06 09:02:12;;;;;;;34.20;19.17;;;;;;;;;;4992006;28;94252;-72
2023/04/06 09:04:39;;;;;;;36.20;20.02;;;;;;;;;;5011440;28;93359;-73
2023/04/06 09:07:05;;;;;;;32.17;17.63;;;;;;;;;;5014423;28;93236;-72
2023/04/06 09:09:32;;;;;;;40.40;19.38;;;;;;;;;;5006524;28;93130;-72
2023/04/06 09:12:05;;;;;;;38.40;19.30;;;;;;;;;;5007427;28;93672;-73
2023/04/06 09:14:36;;;;;;;31.83;19.35;;;;;;;;;;5010826;28;92694;-72
2023/04/06 09:17:02;;;;;;;31.88;17.95;;;;;;;;;;5005281;28;92709;-72
2023/04/06 09:19:29;;;;;;;31.23;17.83;;;;;;;;;;4995657;28;94267;-72
2023/04/06 09:22:06;;;;;;;40.45;19.92;;;;;;;;;;4990866;28;95957;-72
2023/04/06 09:24:40;;;;;;;33.35;17.98;;;;;;;;;;5006124;28;92434;-73
2023/04/06 09:27:06;;;;;;;43.70;20.20;;;;;;;;;;5011362;28;93403;-72
2023/04/06 09:29:33;;;;;;;34.63;18.60;;;;;;;;;;4992064;28;94417;-73
2023/04/06 09:32:03;;;;;;;29.70;17.42;;;;;;;;;;4994209;28;92678;-73
2023/04/06 09:34:30;;;;;;;33.53;19.40;;;;;;;;;;4994861;28;94386;-73
2023/04/06 09:36:56;;;;;;;29.98;18.40;;;;;;;;;;4993252;28;92513;-72
2023/04/06 09:39:25;;;;;;;30.70;18.70;;;;;;;;;;5001556;28;93183;-73
2023/04/06 09:41:52;;;;;;;31.98;18.10;;;;;;;;;;5005227;28;93602;-73
2023/04/06 09:44:19;;;;;;;35.90;18.50;;;;;;;;;;4992502;28;92709;-72
2023/04/06 09:46:47;;;;;;;33.47;18.77;;;;;;;;;;4991980;28;94773;-73
2023/04/06 09:49:30;;;;;;;32.15;18.30;;;;;;;;;;4985091;28;94605;-73
2023/04/06 09:52:00;;;;;;;34.85;19.00;;;;;;;;;;4992342;28;92677;-73
2023/04/06 09:54:28;;;;;;;36.93;19.33;;;;;;;;;;5002243;28;93431;-73
2023/04/06 09:56:55;;;;;;;40.13;20.35;;;;;;;;;;4996748;28;93406;-74
2023/04/06 09:59:30;;;;;;;42.45;21.75;;;;;;;;;;5006497;28;92960;-74
2023/04/06 10:01:58;;;;;;;36.25;21.50;;;;;;;;;;5013467;28;92494;-73
2023/04/06 10:04:33;;;;;;;36.13;20.45;;;;;;;;;;5012063;28;91713;-73
2023/04/06 10:07:02;;;;;;;39.95;21.48;;;;;;;;;;4992695;28;92500;-73
2023/04/06 10:09:35;;;;;;;41.42;21.02;;;;;;;;;;4994289;28;93400;-73
2023/04/06 10:12:03;;;;;;;44.42;20.92;;;;;;;;;;4992675;28;95172;-72
2023/04/06 10:14:30;;;;;;;39.63;19.35;;;;;;;;;;4987980;28;95620;-73
2023/04/06 10:16:57;;;;;;;39.63;19.60;;;;;;;;;;4994377;28;93913;-73
2023/04/06 10:19:25;;;;;;;30.20;17.80;;;;;;;;;;5004237;28;93386;-73
2023/04/06 10:21:54;;;;;;;37.08;17.95;;;;;;;;;;4997987;28;93849;-73
2023/04/06 10:24:21;;;;;;;33.63;16.48;;;;;;;;;;5013379;28;92406;-74
2023/04/06 10:27:03;;;;;;;28.02;15.48;;;;;;;;;;5005262;28;93218;-73
2023/04/06 10:29:41;;;;;;;32.33;15.43;;;;;;;;;;5004928;28;92799;-74
2023/04/06 10:32:07;;;;;;;24.90;15.15;;;;;;;;;;5002667;28;92363;-74
2023/04/06 10:34:35;;;;;;;21.42;13.05;;;;;;;;;;4996291;28;93383;-73
2023/04/06 10:37:14;;;;;;;27.17;13.18;;;;;;;;;;5009400;28;95974;-74
2023/04/06 10:39:47;;;;;;;24.02;12.18;;;;;;;;;;5003319;28;92801;-74
2023/04/06 10:42:14;;;;;;;22.45;12.85;;;;;;;;;;5005460;28;93477;-73
2023/04/06 10:44:44;;;;;;;16.13;10.00;;;;;;;;;;4997481;28;92651;-74
2023/04/06 10:47:15;;;;;;;19.50;9.35;;;;;;;;;;4994598;28;94177;-74
2023/04/06 10:49:42;;;;;;;17.25;8.75;;;;;;;;;;5003366;28;94151;-74
2023/04/06 10:52:09;;;;;;;13.45;7.68;;;;;;;;;;4993688;28;92526;-73
2023/04/06 10:54:39;;;;;;;12.68;7.45;;;;;;;;;;4994766;28;93630;-74
2023/04/06 10:57:05;;;;;;;14.90;7.35;;;;;;;;;;4992408;28;93477;-73
2023/04/06 10:59:32;;;;;;;16.90;7.88;;;;;;;;;;4990660;28;92449;-74
2023/04/06 11:01:58;;;;;;;15.13;7.25;;;;;;;;;;5008531;28;94893;-74
2023/04/06 11:04:25;;;;;;;10.50;6.97;;;;;;;;;;5013609;28;92705;-74
2023/04/06 11:06:51;;;;;;;12.27;7.18;;;;;;;;;;5008031;28;93515;-73
2023/04/06 11:09:27;;;;;;;9.80;7.15;;;;;;;;;;4997982;28;93284;-73
2023/04/06 11:11:55;;;;;;;10.85;7.15;;;;;;;;;;5011076;28;92536;-73
2023/04/06 11:14:21;;;;;;;11.68;7.20;;;;;;;;;;5013253;28;93232;-74
2023/04/06 11:16:51;;;;;;;15.48;7.13;;;;;;;;;;5001059;28;93802;-74
2023/04/06 11:19:17;;;;;;;12.83;7.10;;;;;;;;;;5000633;28;91865;-74
2023/04/06 11:21:47;;;;;;;12.75;6.10;;;;;;;;;;4999669;28;92478;-72
2023/04/06 11:24:15;;;;;;;12.38;6.82;;;;;;;;;;5016435;28;94659;-72
2023/04/06 11:26:43;;;;;;;9.25;5.88;;;;;;;;;;5009629;28;94800;-73
2023/04/06 11:29:11;;;;;;;11.20;6.30;;;;;;;;;;5012805;28;94459;-72
2023/04/06 11:31:39;;;;;;;11.02;6.53;;;;;;;;;;4994385;28;92735;-72
2023/04/06 11:34:09;;;;;;;11.10;7.45;;;;;;;;;;5010452;28;94089;-72
2023/04/06 11:36:35;;;;;;;9.65;6.65;;;;;;;;;;4999039;28;93407;-73
2023/04/06 11:39:03;;;;;;;13.48;7.15;;;;;;;;;;5011563;28;92485;-73
2023/04/06 11:41:30;;;;;;;13.77;6.85;;;;;;;;;;5008337;28;93174;-72
2023/04/06 11:43:56;;;;;;;6.75;5.00;;;;;;;;;;5015143;28;93326;-72
2023/04/06 11:46:25;;;;;;;8.30;5.80;;;;;;;;;;5010079;28;92459;-73
2023/04/06 11:48:52;;;;;;;11.23;6.20;;;;;;;;;;5007018;28;93880;-73
2023/04/06 11:51:23;;;;;;;8.63;5.57;;;;;;;;;;4996270;28;95895;-73
2023/04/06 11:53:49;;;;;;;9.48;6.40;;;;;;;;;;4996212;28;95722;-73
2023/04/06 11:56:25;;;;;;;8.77;6.05;;;;;;;;;;4995966;28;93613;-73
2023/04/06 11:58:52;;;;;;;8.95;5.90;;;;;;;;;;4996268;28;92591;-73
2023/04/06 12:01:18;;;;;;;10.45;6.32;;;;;;;;;;4997028;28;92707;-73
2023/04/06 12:03:45;;;;;;;12.88;7.28;;;;;;;;;;4995506;28;93715;-73
2023/04/06 12:06:12;;;;;;;11.95;6.35;;;;;;;;;;5011236;28;92849;-73
2023/04/06 12:08:38;;;;;;;11.93;7.82;;;;;;;;;;5000071;28;93066;-73
2023/04/06 12:11:05;;;;;;;16.42;8.18;;;;;;;;;;4999114;28;92726;-75
2023/04/06 12:13:31;;;;;;;13.75;7.60;;;;;;;;;;5016367;28;94682;-73
2023/04/06 12:15:58;;;;;;;15.57;7.95;;;;;;;;;;5009139;28;95753;-74
2023/04/06 12:18:25;;;;;;;13.30;7.75;;;;;;;;;;4996450;28;92345;-73
2023/04/06 12:20:51;;;;;;;9.05;6.40;;;;;;;;;;5011156;28;93187;-74
2023/04/06 12:23:19;;;;;;;15.20;7.78;;;;;;;;;;4995832;28;93395;-74
2023/04/06 12:25:45;;;;;;;11.15;7.35;;;;;;;;;;4997604;28;92561;-74
2023/04/06 12:28:12;;;;;;;12.40;8.48;;;;;;;;;;5014970;28;93287;-73
2023/04/06 12:30:39;;;;;;;17.73;8.32;;;;;;;;;;5013239;28;92556;-73
2023/04/06 12:33:05;;;;;;;12.18;8.48;;;;;;;;;;5016518;28;92985;-73
2023/04/06 12:35:35;;;;;;;11.80;7.95;;;;;;;;;;4995090;28;93409;-72
2023/04/06 12:38:01;;;;;;;15.25;8.13;;;;;;;;;;5009312;28;92410;-70
2023/04/06 12:40:28;;;;;;;12.40;8.88;;;;;;;;;;5013909;28;94766;-69
2023/04/06 12:42:54;;;;;;;12.50;8.35;;;;;;;;;;4997198;28;93508;-68
2023/04/06 12:45:20;;;;;;;14.75;8.68;;;;;;;;;;4994323;28;92563;-69
2023/04/06 12:47:47;;;;;;;16.23;8.40;;;;;;;;;;4993788;28;93149;-68
2023/04/06 12:50:13;;;;;;;13.80;8.68;;;;;;;;;;5004451;28;93465;-69
2023/04/06 12:52:39;;;;;;;13.25;8.40;;;;;;;;;;4998294;28;93099;-69
2023/04/06 12:55:06;;;;;;;11.75;7.57;;;;;;;;;;4994422;28;93931;-68
2023/04/06 12:57:32;;;;;;;11.05;7.50;;;;;;;;;;4996523;28;93920;-72
2023/04/06 12:59:59;;;;;;;15.90;8.95;;;;;;;;;;4994747;28;92449;-70
2023/04/06 13:02:26;;;;;;;17.30;8.55;;;;;;;;;;4995550;28;93375;-69
2023/04/06 13:04:53;;;;;;;16.13;8.63;;;;;;;;;;4993838;28;94858;-69
2023/04/06 13:07:19;;;;;;;14.52;8.40;;;;;;;;;;5000845;28;97131;-72
2023/04/06 13:09:47;;;;;;;15.40;8.63;;;;;;;;;;4996205;28;93403;-71
2023/04/06 13:12:13;;;;;;;11.90;8.52;;;;;;;;;;5014738;28;92457;-71
2023/04/06 13:14:40;;;;;;;13.85;8.63;;;;;;;;;;4995057;28;93486;-71
2023/04/06 13:17:06;;;;;;;13.45;9.02;;;;;;;;;;4997485;28;92451;-73
2023/04/06 13:19:33;;;;;;;11.57;8.68;;;;;;;;;;5016485;28;93124;-72
2023/04/06 13:21:59;;;;;;;12.68;9.18;;;;;;;;;;5005212;28;92646;-71
2023/04/06 13:24:25;;;;;;;15.00;9.02;;;;;;;;;;5000998;28;92463;-70
2023/04/06 13:26:52;;;;;;;15.13;9.45;;;;;;;;;;5006242;28;93220;-72
2023/04/06 13:29:18;;;;;;;15.65;9.65;;;;;;;;;;5026621;28;95076;-72
2023/04/06 13:31:45;;;;;;;15.95;9.63;;;;;;;;;;5027030;28;91744;-73
2023/04/06 13:34:11;;;;;;;18.80;10.00;;;;;;;;;;5033981;28;92631;-73
2023/04/06 13:36:40;;;;;;;17.73;9.73;;;;;;;;;;5018841;28;92257;-74
2023/04/06 13:39:06;;;;;;;15.77;9.10;;;;;;;;;;5026171;28;93007;-73
2023/04/06 13:41:33;;;;;;;16.13;9.50;;;;;;;;;;5017150;28;92118;-73
2023/04/06 13:43:59;;;;;;;16.45;9.77;;;;;;;;;;5029032;28;92283;-72
2023/04/06 13:46:27;;;;;;;12.38;8.65;;;;;;;;;;5021214;28;91661;-74
2023/04/06 13:48:53;;;;;;;13.57;9.13;;;;;;;;;;5023546;28;92251;-74
2023/04/06 13:51:19;;;;;;;15.93;9.55;;;;;;;;;;5034850;28;91708;-73
2023/04/06 13:53:46;;;;;;;13.68;9.23;;;;;;;;;;5027734;28;93963;-72
2023/04/06 13:56:12;;;;;;;15.10;9.43;;;;;;;;;;5021983;28;92517;-72
2023/04/06 13:58:39;;;;;;;16.40;9.80;;;;;;;;;;4998343;28;94760;-73
2023/04/06 14:01:09;;;;;;;14.00;9.40;;;;;;;;;;5013988;28;93738;-72
2023/04/06 14:03:37;;;;;;;12.32;9.10;;;;;;;;;;5008177;28;92551;-73
2023/04/06 14:06:10;;;;;;;13.90;8.90;;;;;;;;;;5005153;28;93361;-72
2023/04/06 14:08:55;;;;;;;16.63;8.93;;;;;;;;;;5002793;28;93429;-73
2023/04/06 14:11:21;;;;;;;15.43;9.13;;;;;;;;;;5012232;28;91823;-73
2023/04/06 14:13:49;;;;;;;14.13;9.85;;;;;;;;;;5010899;28;92606;-73
2023/04/06 14:16:19;;;;;;;14.50;9.70;;;;;;;;;;5011665;28;94584;-73
2023/04/06 14:18:45;;;;;;;15.55;9.45;;;;;;;;;;4995733;28;94968;-73
2023/04/06 14:21:11;;;;;;;15.55;10.05;;;;;;;;;;5005406;28;94508;-73